createdAt,value
2018-02-25T00:00:05.221Z,1.9
2018-02-25T00:15:05.957Z,1.8
2018-02-25T00:30:05.462Z,1.7
2018-02-25T00:45:04.907Z,1.4
2018-02-25T01:00:05.007Z,1.6
2018-02-25T01:15:06.166Z,1.2
2018-02-25T01:30:05.355Z,1
2018-02-25T01:45:04.889Z,1
2018-02-25T02:00:05.272Z,0.9
2018-02-25T02:15:04.895Z,0.7
2018-02-25T02:30:04.968Z,0.7
2018-02-25T02:45:05.519Z,0.7
2018-02-25T03:00:07.921Z,0.5
2018-02-25T03:15:06.174Z,0.4
2018-02-25T03:30:04.745Z,0.2
2018-02-25T03:45:04.270Z,0.1
2018-02-25T04:00:07.686Z,0.1
2018-02-25T04:15:12.457Z,-0.1
2018-02-25T04:30:06.082Z,-0.6
2018-02-25T04:45:08.164Z,-0.6
2018-02-25T05:00:12.323Z,-0.8
2018-02-25T05:15:07.379Z,-0.6
2018-02-25T05:30:05.195Z,-0.9
2018-02-25T05:45:05.186Z,-1.1
2018-02-25T06:00:05.454Z,-1
2018-02-25T06:15:04.411Z,-1.4
2018-02-25T06:30:10.805Z,-1.5
2018-02-25T06:45:04.811Z,-1.4
2018-02-25T07:00:04.314Z,-1.6
2018-02-25T07:15:04.767Z,-2
2018-02-25T07:30:04.476Z,-1.9
2018-02-25T07:45:04.468Z,-2.1
2018-02-25T08:00:05.051Z,-1.9
2018-02-25T08:15:04.974Z,-2.1
2018-02-25T08:30:11.973Z,-1.9
2018-02-25T08:45:08.160Z,-2.1
2018-02-25T09:00:06.019Z,-1.9
2018-02-25T09:15:06.011Z,-1.8
2018-02-25T09:30:04.643Z,-1.5
2018-02-25T09:45:06.079Z,-1.6
2018-02-25T10:00:11.841Z,-1.5
2018-02-25T10:15:05.378Z,-1.3
2018-02-25T10:30:04.634Z,-1.2
2018-02-25T10:45:05.685Z,-0.7
2018-02-25T11:00:07.857Z,-0.8
2018-02-25T11:15:04.994Z,-0.5
2018-02-25T11:30:05.040Z,0
2018-02-25T11:45:04.821Z,-0.3
2018-02-25T12:00:04.589Z,-0.3
2018-02-25T12:15:05.000Z,0
2018-02-25T12:30:04.773Z,0.1
2018-02-25T12:45:05.197Z,-0.2
2018-02-25T13:00:05.600Z,-0.1
2018-02-25T13:15:04.785Z,-0.2
2018-02-25T13:30:05.649Z,-0.3
2018-02-25T13:45:15.709Z,-0.2
2018-02-25T14:00:05.854Z,-0.4
2018-02-25T14:15:07.437Z,-0.2
2018-02-25T14:30:05.747Z,-0.1
2018-02-25T14:45:07.835Z,-0.3
2018-02-25T15:00:07.338Z,-0.2
2018-02-25T15:15:05.757Z,-0.3
2018-02-25T15:30:04.469Z,-0.4
2018-02-25T15:45:05.530Z,-0.5
2018-02-25T16:00:04.632Z,-0.5
2018-02-25T16:15:10.982Z,-0.6
2018-02-25T16:30:04.688Z,-0.5
2018-02-25T16:45:07.615Z,-0.6
2018-02-25T17:00:06.191Z,-0.7
2018-02-25T17:15:05.158Z,-0.7
2018-02-25T17:30:05.023Z,-0.7
2018-02-25T17:45:12.322Z,-0.9
2018-02-25T18:00:06.184Z,-1.1
2018-02-25T18:15:04.660Z,-1.1
2018-02-25T18:30:05.085Z,-1.1
2018-02-25T18:45:04.868Z,-1.3
2018-02-25T19:00:05.763Z,-1.3
2018-02-25T19:15:15.173Z,-1.7
2018-02-25T19:30:06.195Z,-1.7
2018-02-25T19:45:05.050Z,-2.1
2018-02-25T20:00:05.280Z,-2
2018-02-25T20:15:04.789Z,-2.1
2018-02-25T20:30:08.012Z,-2.2
2018-02-25T20:45:08.686Z,-2.2
2018-02-25T21:00:06.041Z,-2.3
2018-02-25T21:15:05.201Z,-2.3
2018-02-25T21:30:08.630Z,-2.4
2018-02-25T21:45:07.858Z,-2.4
2018-02-25T22:00:07.618Z,-2.6
2018-02-25T22:15:08.170Z,-2.6
2018-02-25T22:30:05.373Z,-2.8
2018-02-25T22:45:05.701Z,-2.9
2018-02-25T23:00:06.451Z,-2.9
2018-02-25T23:15:04.680Z,-2.9
2018-02-25T23:30:11.849Z,-2.8
2018-02-25T23:45:05.376Z,-2.9
